Main page
METAR-TAF:

METAR-TAF

Airports :

Morón de la Frontera, Spain

Morón Air Base

latitude: 37-09N, longitude: 005-37W, elevation: 87 m

Current weather observation

The report was made 48 minutes ago, at 11:00 UTC
Wind 3 kt from the West/Northwest, varying between Southwest and North
Temperature 20°C
Humidity 73%
Pressure 1017 hPa
Visibility: 8000 m
Few clouds at a height of 1400 ft
Broken clouds at a height of 1600 ft
Broken clouds at a height of 2700 ft

METAR: LEMO 261100Z 30003KT 220V360 8000 FEW014 BKN016 BKN027 20/15 Q1017 NOSIG

Time: 13:48 (11:48 UTC)

Forecast

The report was made 48 minutes ago, at 11:00 UTC
Forecast valid from 26 at 12 UTC to 26 at 21 UTC
Wind 7 kt from the West
Visibility 10 km or more
Scattered clouds at a height of 2000 ft

TAF: LEMO 261100Z 2612/2621 27007KT 9999 SCT020

Weather observations and forecasts of more than 4000 airports (METAR and TAF reports).

The available stations are represented by yellow and red dots on the map.

Hover mouse over dot to see the name of the station.

Then click to see weather observations and forecasts.

To change the map : click on the green buttons with a black cross to zoom in, on the green button with a dash to zoom out, or on the green arrows for adjacent maps.


METAR-TAF: